Time;durP1;ratioP1;P1;durP2;ratioP2;P2;SDS_P1;SDS_P2;PMS_P1;PMS_P2;Temp;Humidity;BMP_temperature;BMP_pressure;BME280_temperature;BME280_humidity;BME280_pressure;Samples;Min_cycle;Max_cycle;Signal;HPM_P1;HPM_P2
2023/09/18 00:01:09;;;;;;;;;;;25.00;99.90;;;;;;5050808;28;19909;-73
2023/09/18 00:03:35;;;;;;;;;;;24.90;99.90;;;;;;5048874;28;20438;-73
2023/09/18 00:06:01;;;;;;;;;;;24.90;99.90;;;;;;5050380;28;19991;-73
2023/09/18 00:08:27;;;;;;;;;;;24.80;99.90;;;;;;5050649;28;19957;-73
2023/09/18 00:10:53;;;;;;;;;;;24.80;99.90;;;;;;5049997;28;20281;-73
2023/09/18 00:13:19;;;;;;;;;;;24.80;99.90;;;;;;5050080;28;19999;-73
2023/09/18 00:15:46;;;;;;;;;;;24.70;99.90;;;;;;5050421;28;20012;-73
2023/09/18 00:18:15;;;;;;;;;;;24.70;99.90;;;;;;5050334;28;19917;-73
2023/09/18 00:20:41;;;;;;;;;;;24.80;99.90;;;;;;5050356;28;20280;-73
2023/09/18 00:23:08;;;;;;;;;;;24.70;99.90;;;;;;5050046;28;20015;-73
2023/09/18 00:25:34;;;;;;;;;;;24.70;99.90;;;;;;5048714;28;20310;-73
2023/09/18 00:28:00;;;;;;;;;;;24.70;99.90;;;;;;5050209;28;20015;-73
2023/09/18 00:30:25;;;;;;;;;;;24.60;99.90;;;;;;5049935;28;19947;-72
2023/09/18 00:32:51;;;;;;;;;;;24.60;99.90;;;;;;5050257;28;19955;-73
2023/09/18 00:35:17;;;;;;;;;;;24.60;99.90;;;;;;5050163;28;19970;-73
2023/09/18 00:37:43;;;;;;;;;;;24.60;99.90;;;;;;5067542;28;19928;-73
2023/09/18 00:40:09;;;;;;;;;;;24.60;99.90;;;;;;5069988;28;19912;-72
2023/09/18 00:42:36;;;;;;;;;;;24.60;99.90;;;;;;5069966;28;20015;-72
2023/09/18 00:45:02;;;;;;;;;;;24.60;99.90;;;;;;5069952;28;19909;-72
2023/09/18 00:47:28;;;;;;;;;;;24.60;99.90;;;;;;5070166;28;19931;-73
2023/09/18 00:49:54;;;;;;;;;;;24.50;99.90;;;;;;5070022;28;19942;-73
2023/09/18 00:52:21;;;;;;;;;;;24.60;99.90;;;;;;5069761;28;19908;-73
2023/09/18 00:54:48;;;;;;;;;;;24.60;99.90;;;;;;5051775;28;19908;-73
2023/09/18 00:57:13;;;;;;;;;;;24.50;99.90;;;;;;5051450;28;19920;-73
2023/09/18 00:59:39;;;;;;;;;;;24.50;99.90;;;;;;5069876;28;19921;-73
2023/09/18 01:02:06;;;;;;;;;;;24.60;99.90;;;;;;5069851;28;20383;-73
2023/09/18 01:04:32;;;;;;;;;;;24.60;99.90;;;;;;5069964;28;19909;-73
2023/09/18 01:07:01;;;;;;;;;;;24.60;99.90;;;;;;5069759;28;20407;-72
2023/09/18 01:09:26;;;;;;;;;;;24.60;99.90;;;;;;5069660;28;19927;-73
2023/09/18 01:12:08;;;;;;;;;;;24.60;99.90;;;;;;5051690;28;19908;-74
2023/09/18 01:14:40;;;;;;;;;;;24.60;99.90;;;;;;5054155;28;20328;-72
2023/09/18 01:17:07;;;;;;;;;;;24.60;99.90;;;;;;5073558;28;19952;-73
2023/09/18 01:19:46;;;;;;;;;;;24.60;99.90;;;;;;5073224;28;19916;-73
2023/09/18 01:22:13;;;;;;;;;;;24.60;99.90;;;;;;5073154;28;19908;-73
2023/09/18 01:24:40;;;;;;;;;;;24.60;99.90;;;;;;5072877;28;20035;-73
2023/09/18 01:27:07;;;;;;;;;;;24.70;99.90;;;;;;5073195;28;19916;-73
2023/09/18 01:29:33;;;;;;;;;;;24.70;99.90;;;;;;5054727;28;20366;-73
2023/09/18 01:31:59;;;;;;;;;;;24.80;99.90;;;;;;5055071;28;19927;-73
2023/09/18 01:34:36;;;;;;;;;;;24.70;99.90;;;;;;5073060;28;19995;-73
2023/09/18 01:37:03;;;;;;;;;;;24.70;99.90;;;;;;5072678;28;19931;-73
2023/09/18 01:39:31;;;;;;;;;;;24.70;99.90;;;;;;5072990;28;19967;-73
2023/09/18 01:42:05;;;;;;;;;;;24.70;99.90;;;;;;5072553;28;20365;-72
2023/09/18 01:44:31;;;;;;;;;;;24.60;99.90;;;;;;5054619;28;19910;-73
2023/09/18 01:47:02;;;;;;;;;;;24.60;99.90;;;;;;5054666;28;19908;-73
2023/09/18 01:49:35;;;;;;;;;;;24.60;99.90;;;;;;5072685;28;19934;-72
2023/09/18 01:52:01;;;;;;;;;;;24.70;99.90;;;;;;5072560;28;19908;-73
2023/09/18 01:54:27;;;;;;;;;;;24.70;99.90;;;;;;5072821;28;19919;-72
2023/09/18 01:56:56;;;;;;;;;;;24.60;99.90;;;;;;5072322;28;19909;-74
2023/09/18 01:59:22;;;;;;;;;;;24.60;99.90;;;;;;5072441;28;19920;-73
2023/09/18 02:01:48;;;;;;;;;;;24.60;99.90;;;;;;5072499;28;19932;-73
2023/09/18 02:04:14;;;;;;;;;;;24.50;99.90;;;;;;5072281;28;19969;-72
2023/09/18 02:06:40;;;;;;;;;;;24.50;99.90;;;;;;5072447;28;20347;-73
2023/09/18 02:09:09;;;;;;;;;;;24.50;99.90;;;;;;5072457;28;19915;-73
2023/09/18 02:11:38;;;;;;;;;;;24.50;99.90;;;;;;5054030;28;19981;-72
2023/09/18 02:14:05;;;;;;;;;;;24.50;99.90;;;;;;5072246;28;19927;-72
2023/09/18 02:16:35;;;;;;;;;;;24.50;99.90;;;;;;5054022;28;19915;-73
2023/09/18 02:19:02;;;;;;;;;;;24.40;99.90;;;;;;5072255;28;19975;-73
2023/09/18 02:21:28;;;;;;;;;;;24.50;99.90;;;;;;5072003;28;20032;-73
2023/09/18 02:23:54;;;;;;;;;;;24.40;99.90;;;;;;5071470;28;20262;-73
2023/09/18 02:26:21;;;;;;;;;;;24.40;99.90;;;;;;5054247;28;19964;-73
2023/09/18 02:28:47;;;;;;;;;;;24.40;99.90;;;;;;5071963;28;19908;-73
2023/09/18 02:31:13;;;;;;;;;;;24.40;99.90;;;;;;5072061;28;19982;-73
2023/09/18 02:33:39;;;;;;;;;;;24.40;99.90;;;;;;5071791;28;19999;-73
2023/09/18 02:36:05;;;;;;;;;;;24.40;99.90;;;;;;5071495;28;19916;-74
2023/09/18 02:38:31;;;;;;;;;;;24.40;99.90;;;;;;5071959;28;20034;-73
2023/09/18 02:40:57;;;;;;;;;;;24.40;99.90;;;;;;5071494;28;20329;-72
2023/09/18 02:43:23;;;;;;;;;;;24.40;99.90;;;;;;5071922;28;20018;-73
2023/09/18 02:45:49;;;;;;;;;;;24.40;99.90;;;;;;5071787;28;19909;-73
2023/09/18 02:48:15;;;;;;;;;;;24.30;99.90;;;;;;5071535;28;20332;-73
2023/09/18 02:50:41;;;;;;;;;;;24.40;99.90;;;;;;5071717;28;19931;-74
2023/09/18 02:53:08;;;;;;;;;;;24.30;99.90;;;;;;5071175;28;19915;-73
2023/09/18 02:55:34;;;;;;;;;;;24.30;99.90;;;;;;5052795;28;19956;-73
2023/09/18 02:58:03;;;;;;;;;;;24.40;99.90;;;;;;5071796;28;19966;-74
2023/09/18 03:00:29;;;;;;;;;;;24.40;99.90;;;;;;5071778;28;20368;-72
2023/09/18 03:02:54;;;;;;;;;;;24.50;99.90;;;;;;5072182;28;19919;-73
2023/09/18 03:05:20;;;;;;;;;;;24.50;99.90;;;;;;5072031;28;19909;-75
2023/09/18 03:07:47;;;;;;;;;;;24.50;99.90;;;;;;5072907;28;19908;-72
2023/09/18 03:10:15;;;;;;;;;;;24.50;99.90;;;;;;5072376;28;19913;-74
2023/09/18 03:12:41;;;;;;;;;;;24.50;99.90;;;;;;5072081;28;19916;-74
2023/09/18 03:15:07;;;;;;;;;;;24.50;99.90;;;;;;5071970;28;19908;-74
2023/09/18 03:17:33;;;;;;;;;;;24.40;99.90;;;;;;5072077;28;20340;-74
2023/09/18 03:19:59;;;;;;;;;;;24.40;99.90;;;;;;5071931;28;19908;-74
2023/09/18 03:22:25;;;;;;;;;;;24.40;99.90;;;;;;5071990;28;20198;-75
2023/09/18 03:24:51;;;;;;;;;;;24.50;99.90;;;;;;5072772;28;19915;-74
2023/09/18 03:27:16;;;;;;;;;;;24.50;99.90;;;;;;5072533;28;19909;-74
2023/09/18 03:29:42;;;;;;;;;;;24.50;99.90;;;;;;5073159;28;19993;-73
2023/09/18 03:32:11;;;;;;;;;;;24.60;99.90;;;;;;5055472;28;19912;-74
2023/09/18 03:34:38;;;;;;;;;;;24.60;99.90;;;;;;5073037;28;19931;-73
2023/09/18 03:37:04;;;;;;;;;;;24.50;99.90;;;;;;5054129;28;20329;-74
2023/09/18 03:39:29;;;;;;;;;;;24.50;99.90;;;;;;5054651;28;19916;-73
2023/09/18 03:41:55;;;;;;;;;;;24.50;99.90;;;;;;5072851;28;19916;-74
2023/09/18 03:44:22;;;;;;;;;;;24.40;99.90;;;;;;5054778;28;19913;-74
2023/09/18 03:46:48;;;;;;;;;;;24.40;99.90;;;;;;5072752;28;19931;-73
2023/09/18 03:49:14;;;;;;;;;;;24.30;99.90;;;;;;5054649;28;20272;-73
2023/09/18 03:51:40;;;;;;;;;;;24.30;99.90;;;;;;5073065;28;19912;-74
2023/09/18 03:54:06;;;;;;;;;;;24.40;99.90;;;;;;5054639;28;19912;-73
2023/09/18 03:56:31;;;;;;;;;;;24.40;99.90;;;;;;5072929;28;19990;-74
2023/09/18 03:59:00;;;;;;;;;;;24.40;99.90;;;;;;5072985;28;19938;-74
2023/09/18 04:01:27;;;;;;;;;;;24.40;99.90;;;;;;5072575;28;20007;-72
2023/09/18 04:03:53;;;;;;;;;;;24.30;99.90;;;;;;5054409;28;20027;-73
2023/09/18 04:06:20;;;;;;;;;;;24.40;99.90;;;;;;5073024;28;19913;-74
2023/09/18 04:08:46;;;;;;;;;;;24.40;99.90;;;;;;5072456;28;20321;-73
2023/09/18 04:11:12;;;;;;;;;;;24.40;99.90;;;;;;5072673;28;19908;-74
2023/09/18 04:13:38;;;;;;;;;;;24.40;99.90;;;;;;5072488;28;19953;-74
2023/09/18 04:16:07;;;;;;;;;;;24.40;99.90;;;;;;5072565;28;20288;-74
2023/09/18 04:18:34;;;;;;;;;;;24.40;99.90;;;;;;5072929;28;20357;-72
2023/09/18 04:21:00;;;;;;;;;;;24.40;99.90;;;;;;5073002;28;19909;-73
2023/09/18 04:23:27;;;;;;;;;;;24.30;99.90;;;;;;5053463;28;19909;-74
2023/09/18 04:25:53;;;;;;;;;;;24.30;99.90;;;;;;5052844;28;19916;-73
2023/09/18 04:28:20;;;;;;;;;;;24.40;99.90;;;;;;5052908;28;20356;-74
2023/09/18 04:30:46;;;;;;;;;;;24.40;99.90;;;;;;5052739;28;19916;-73
2023/09/18 04:33:16;;;;;;;;;;;24.40;99.90;;;;;;5053070;28;19909;-73
2023/09/18 04:35:41;;;;;;;;;;;24.40;99.90;;;;;;5052551;28;19908;-74
2023/09/18 04:38:11;;;;;;;;;;;24.30;99.90;;;;;;5053080;28;20012;-73
2023/09/18 04:40:37;;;;;;;;;;;24.30;99.90;;;;;;5052616;28;20091;-73
2023/09/18 04:43:06;;;;;;;;;;;24.20;99.90;;;;;;5052999;28;19916;-75
2023/09/18 04:45:32;;;;;;;;;;;24.20;99.90;;;;;;5052726;28;20016;-74
2023/09/18 04:47:58;;;;;;;;;;;24.20;99.90;;;;;;5055019;28;20333;-73
2023/09/18 04:50:26;;;;;;;;;;;24.30;99.90;;;;;;5038497;28;20253;-73
2023/09/18 04:52:54;;;;;;;;;;;24.30;99.90;;;;;;5071702;28;19909;-74
2023/09/18 04:55:20;;;;;;;;;;;24.30;99.90;;;;;;5076322;28;19916;-74
2023/09/18 04:57:45;;;;;;;;;;;24.40;99.90;;;;;;5057902;28;19908;-73
2023/09/18 05:00:13;;;;;;;;;;;24.40;99.90;;;;;;5075895;28;20430;-73
2023/09/18 05:02:40;;;;;;;;;;;24.40;99.90;;;;;;5076792;28;20337;-73
2023/09/18 05:05:08;;;;;;;;;;;24.40;99.90;;;;;;5076064;28;19909;-74
2023/09/18 05:07:34;;;;;;;;;;;24.40;99.90;;;;;;5075799;28;19985;-73
2023/09/18 05:10:00;;;;;;;;;;;24.40;99.90;;;;;;5075754;28;20007;-73
2023/09/18 05:12:26;;;;;;;;;;;24.40;99.90;;;;;;5075472;28;19909;-73
2023/09/18 05:14:52;;;;;;;;;;;24.50;99.90;;;;;;5075528;28;19944;-73
2023/09/18 05:17:18;;;;;;;;;;;24.60;99.90;;;;;;5075677;28;20325;-73
2023/09/18 05:19:44;;;;;;;;;;;24.70;99.90;;;;;;5076379;28;19978;-73
2023/09/18 05:22:10;;;;;;;;;;;24.80;99.90;;;;;;5075899;28;19962;-73
2023/09/18 05:24:38;;;;;;;;;;;24.90;99.90;;;;;;5057640;28;19951;-73
2023/09/18 05:27:06;;;;;;;;;;;25.00;99.90;;;;;;5074891;28;19908;-73
2023/09/18 05:29:32;;;;;;;;;;;25.20;99.90;;;;;;5074315;28;20424;-73
2023/09/18 05:32:03;;;;;;;;;;;25.30;99.90;;;;;;5074918;28;19951;-73
2023/09/18 05:34:29;;;;;;;;;;;25.50;99.90;;;;;;5075109;28;19908;-73
2023/09/18 05:36:55;;;;;;;;;;;25.70;99.90;;;;;;5053235;28;19925;-74
2023/09/18 05:39:22;;;;;;;;;;;25.80;99.90;;;;;;5055394;28;19917;-73
2023/09/18 05:41:48;;;;;;;;;;;25.90;99.90;;;;;;5074711;28;19913;-73
2023/09/18 05:44:14;;;;;;;;;;;26.20;99.90;;;;;;5057452;28;19909;-74
2023/09/18 05:46:40;;;;;;;;;;;26.60;99.90;;;;;;5055463;28;19996;-74
2023/09/18 05:49:06;;;;;;;;;;;27.10;99.90;;;;;;5054235;28;20012;-74
2023/09/18 05:51:32;;;;;;;;;;;27.50;99.90;;;;;;5053593;28;19909;-74
2023/09/18 05:53:58;;;;;;;;;;;27.60;99.90;;;;;;5053741;28;20260;-75
2023/09/18 05:56:24;;;;;;;;;;;27.70;99.90;;;;;;5051716;28;19999;-74
2023/09/18 05:58:50;;;;;;;;;;;27.60;99.90;;;;;;5053120;28;19955;-75
2023/09/18 06:01:15;;;;;;;;;;;28.00;99.90;;;;;;5053771;28;20345;-74
2023/09/18 06:03:41;;;;;;;;;;;28.20;99.90;;;;;;5053599;28;19944;-75
2023/09/18 06:06:08;;;;;;;;;;;28.60;99.90;;;;;;5053043;28;19971;-77
2023/09/18 06:08:34;;;;;;;;;;;28.70;99.90;;;;;;5055380;28;19916;-76
2023/09/18 06:11:00;;;;;;;;;;;28.80;99.90;;;;;;5054156;28;20222;-75
2023/09/18 06:13:26;;;;;;;;;;;29.00;99.90;;;;;;5053553;28;20001;-74
2023/09/18 06:15:54;;;;;;;;;;;29.20;99.90;;;;;;5055171;28;19952;-75
2023/09/18 06:18:22;;;;;;;;;;;29.10;99.90;;;;;;5054035;28;20035;-74
2023/09/18 06:20:49;;;;;;;;;;;29.30;99.90;;;;;;5054219;28;19965;-74
2023/09/18 06:23:15;;;;;;;;;;;29.90;99.90;;;;;;5053626;28;19947;-74
2023/09/18 06:25:41;;;;;;;;;;;30.20;99.90;;;;;;5054124;28;19979;-75
2023/09/18 06:28:06;;;;;;;;;;;30.20;99.90;;;;;;5053610;28;20015;-75
2023/09/18 06:30:33;;;;;;;;;;;30.30;99.90;;;;;;5054120;28;19916;-74
2023/09/18 06:32:59;;;;;;;;;;;30.50;99.90;;;;;;5052027;28;19990;-74
2023/09/18 06:35:25;;;;;;;;;;;30.80;99.90;;;;;;5053482;28;20031;-73
2023/09/18 06:37:51;;;;;;;;;;;31.00;99.90;;;;;;5071890;28;19920;-75
2023/09/18 06:40:17;;;;;;;;;;;31.20;99.90;;;;;;5074075;28;19912;-75
2023/09/18 06:42:43;;;;;;;;;;;31.70;99.90;;;;;;5073085;28;19908;-74
2023/09/18 06:45:09;;;;;;;;;;;32.20;99.90;;;;;;5072988;28;19981;-72
2023/09/18 06:47:34;;;;;;;;;;;32.40;99.90;;;;;;5072811;28;19909;-74
2023/09/18 06:50:00;;;;;;;;;;;32.20;99.90;;;;;;5072945;28;19995;-75
2023/09/18 06:52:27;;;;;;;;;;;31.70;99.90;;;;;;5072673;28;19913;-76
2023/09/18 06:54:53;;;;;;;;;;;31.90;99.90;;;;;;5072699;28;19908;-74
2023/09/18 06:57:21;;;;;;;;;;;32.80;99.80;;;;;;5072537;28;19954;-75
2023/09/18 06:59:47;;;;;;;;;;;33.10;99.40;;;;;;5072483;28;19939;-74
2023/09/18 07:02:14;;;;;;;;;;;33.60;98.80;;;;;;5072346;28;19957;-75
2023/09/18 07:04:44;;;;;;;;;;;33.90;98.30;;;;;;5072450;28;20295;-76
2023/09/18 07:07:13;;;;;;;;;;;33.80;98.00;;;;;;5053951;28;20380;-74
2023/09/18 07:09:41;;;;;;;;;;;34.40;97.80;;;;;;5072409;28;19924;-75
2023/09/18 07:12:08;;;;;;;;;;;34.80;96.80;;;;;;5072404;28;19916;-75
2023/09/18 07:14:34;;;;;;;;;;;35.40;96.40;;;;;;5072588;28;19908;-76
2023/09/18 07:17:01;;;;;;;;;;;35.70;95.80;;;;;;5072756;28;19908;-75
2023/09/18 07:19:26;;;;;;;;;;;35.00;95.70;;;;;;5054240;28;20262;-74
2023/09/18 07:21:52;;;;;;;;;;;35.60;95.60;;;;;;5053788;28;19919;-74
2023/09/18 07:24:20;;;;;;;;;;;36.20;96.00;;;;;;5072321;28;19946;-74
2023/09/18 07:26:47;;;;;;;;;;;36.10;95.70;;;;;;5072184;28;19919;-75
2023/09/18 07:29:13;;;;;;;;;;;35.30;95.80;;;;;;5072269;28;19909;-75
2023/09/18 07:31:43;;;;;;;;;;;35.30;96.30;;;;;;5054259;28;20199;-75
2023/09/18 07:34:09;;;;;;;;;;;35.30;95.90;;;;;;5054112;28;19912;-74
2023/09/18 07:36:35;;;;;;;;;;;35.30;94.40;;;;;;5071904;28;19980;-74
2023/09/18 07:39:01;;;;;;;;;;;34.90;93.20;;;;;;5072298;28;19920;-75
2023/09/18 07:41:29;;;;;;;;;;;34.30;92.50;;;;;;5071018;28;20135;-74
2023/09/18 07:43:57;;;;;;;;;;;34.30;92.20;;;;;;5071940;28;20317;-75
2023/09/18 07:46:23;;;;;;;;;;;33.90;92.60;;;;;;5053562;28;19995;-75
2023/09/18 07:48:48;;;;;;;;;;;33.50;91.80;;;;;;5071701;28;20000;-74
2023/09/18 07:51:16;;;;;;;;;;;33.40;91.30;;;;;;5071811;28;20003;-75
2023/09/18 07:53:42;;;;;;;;;;;33.10;90.80;;;;;;5071791;28;19927;-74
2023/09/18 07:56:08;;;;;;;;;;;33.30;90.60;;;;;;5071623;28;19908;-74
2023/09/18 07:58:38;;;;;;;;;;;33.20;90.90;;;;;;5071451;28;19931;-75
2023/09/18 08:01:05;;;;;;;;;;;33.30;90.80;;;;;;5053115;28;20386;-74
2023/09/18 08:03:30;;;;;;;;;;;33.40;91.40;;;;;;5071636;28;19924;-74
2023/09/18 08:05:57;;;;;;;;;;;33.50;91.90;;;;;;5071730;28;19977;-73
2023/09/18 08:08:26;;;;;;;;;;;33.70;92.40;;;;;;5053813;28;20310;-74
2023/09/18 08:10:52;;;;;;;;;;;33.80;92.10;;;;;;5053133;28;19909;-76
2023/09/18 08:13:19;;;;;;;;;;;33.70;92.70;;;;;;5071717;28;19908;-75
2023/09/18 08:15:45;;;;;;;;;;;34.00;92.70;;;;;;5053226;28;19916;-75
2023/09/18 08:18:13;;;;;;;;;;;33.90;92.50;;;;;;5053518;28;20008;-75
2023/09/18 08:20:45;;;;;;;;;;;33.90;92.90;;;;;;5071762;28;19908;-75
2023/09/18 08:23:11;;;;;;;;;;;34.00;93.30;;;;;;5073938;28;19908;-75
2023/09/18 08:25:37;;;;;;;;;;;34.20;93.50;;;;;;5075823;28;19931;-74
2023/09/18 08:28:04;;;;;;;;;;;34.10;93.90;;;;;;5075395;28;20340;-75
2023/09/18 08:30:30;;;;;;;;;;;33.90;94.40;;;;;;5075402;28;20427;-75
2023/09/18 08:32:56;;;;;;;;;;;34.00;94.90;;;;;;5075731;28;20075;-74
2023/09/18 08:35:23;;;;;;;;;;;34.10;95.30;;;;;;5075365;28;19909;-74
2023/09/18 08:37:50;;;;;;;;;;;34.00;96.00;;;;;;5075025;28;19944;-74
2023/09/18 08:40:19;;;;;;;;;;;34.20;96.00;;;;;;5075614;28;19921;-74
2023/09/18 08:42:46;;;;;;;;;;;33.80;95.50;;;;;;5057051;28;19962;-75
2023/09/18 08:45:15;;;;;;;;;;;33.40;94.80;;;;;;5075511;28;20039;-74
2023/09/18 08:47:41;;;;;;;;;;;33.60;95.00;;;;;;5074827;28;20007;-75
2023/09/18 08:50:09;;;;;;;;;;;33.10;95.70;;;;;;5056172;28;20329;-75
2023/09/18 08:52:36;;;;;;;;;;;33.40;95.70;;;;;;5074437;28;19951;-74
2023/09/18 08:55:02;;;;;;;;;;;33.60;95.30;;;;;;5056484;28;19919;-74
2023/09/18 08:57:30;;;;;;;;;;;33.60;95.10;;;;;;5056548;28;20237;-74
2023/09/18 08:59:57;;;;;;;;;;;33.50;95.30;;;;;;5074583;28;20348;-75
2023/09/18 09:02:23;;;;;;;;;;;33.70;95.30;;;;;;5074456;28;20383;-75
2023/09/18 09:04:49;;;;;;;;;;;33.20;95.40;;;;;;5074652;28;19908;-74
2023/09/18 09:07:15;;;;;;;;;;;33.30;94.60;;;;;;5074381;28;19975;-74
2023/09/18 09:09:41;;;;;;;;;;;33.60;93.30;;;;;;5056207;28;19912;-75
2023/09/18 09:12:07;;;;;;;;;;;33.40;93.20;;;;;;5073521;28;19919;-74
2023/09/18 09:14:33;;;;;;;;;;;33.50;93.30;;;;;;5073884;28;19984;-74
2023/09/18 09:16:59;;;;;;;;;;;33.50;93.10;;;;;;5074522;28;19908;-75
2023/09/18 09:19:32;;;;;;;;;;;33.40;92.70;;;;;;5074044;28;20011;-74
2023/09/18 09:21:58;;;;;;;;;;;33.40;93.90;;;;;;5074176;28;19908;-76
2023/09/18 09:24:43;;;;;;;;;;;33.10;96.70;;;;;;5055859;28;20349;-74
2023/09/18 09:27:10;;;;;;;;;;;33.40;98.30;;;;;;5055668;28;19912;-75
2023/09/18 09:29:36;;;;;;;;;;;33.40;97.70;;;;;;5074305;28;19913;-75
2023/09/18 09:32:18;;;;;;;;;;;33.30;97.60;;;;;;5074016;28;19920;-75
2023/09/18 09:34:44;;;;;;;;;;;32.80;97.30;;;;;;5072845;28;19978;-74
2023/09/18 09:37:13;;;;;;;;;;;32.50;97.40;;;;;;5074311;28;20361;-75
2023/09/18 09:39:51;;;;;;;;;;;32.40;97.00;;;;;;5074083;28;19921;-73
2023/09/18 09:42:23;;;;;;;;;;;32.30;98.00;;;;;;5073874;28;19935;-75
2023/09/18 09:44:55;;;;;;;;;;;32.40;97.90;;;;;;5055781;28;20007;-74
2023/09/18 09:47:21;;;;;;;;;;;32.50;98.50;;;;;;5073987;28;20329;-74
2023/09/18 09:49:49;;;;;;;;;;;32.60;98.50;;;;;;5055979;28;19908;-72
2023/09/18 09:52:22;;;;;;;;;;;32.60;98.60;;;;;;5055884;28;20327;-73
2023/09/18 09:54:48;;;;;;;;;;;32.80;98.20;;;;;;5073769;28;20324;-73
2023/09/18 09:57:14;;;;;;;;;;;32.30;98.70;;;;;;5073523;28;19908;-74
2023/09/18 09:59:44;;;;;;;;;;;32.50;98.90;;;;;;5073718;28;20377;-74
2023/09/18 10:02:12;;;;;;;;;;;32.60;98.30;;;;;;5073822;28;19912;-74
2023/09/18 10:04:38;;;;;;;;;;;32.80;98.00;;;;;;5073510;28;19909;-74
2023/09/18 10:07:07;;;;;;;;;;;33.00;97.60;;;;;;5073873;28;19908;-74
2023/09/18 10:09:38;;;;;;;;;;;33.00;97.20;;;;;;5073581;28;19909;-75
2023/09/18 10:12:07;;;;;;;;;;;33.00;96.70;;;;;;5054946;28;19964;-74
2023/09/18 10:14:38;;;;;;;;;;;33.10;96.30;;;;;;5073415;28;20225;-74
2023/09/18 10:17:24;;;;;;;;;;;32.90;95.80;;;;;;5072990;28;19916;-74
2023/09/18 10:19:59;;;;;;;;;;;32.90;95.90;;;;;;5072226;28;20344;-73
2023/09/18 10:22:37;;;;;;;;;;;32.80;95.30;;;;;;5072769;28;19931;-75
2023/09/18 10:25:09;;;;;;;;;;;32.70;95.40;;;;;;5072873;28;19912;-74
2023/09/18 10:27:38;;;;;;;;;;;32.80;94.50;;;;;;5073475;28;20008;-75
2023/09/18 10:30:10;;;;;;;;;;;33.00;93.00;;;;;;5072662;28;20325;-76
2023/09/18 10:32:36;;;;;;;;;;;33.20;92.20;;;;;;5073171;28;19966;-73
2023/09/18 10:35:03;;;;;;;;;;;33.30;90.50;;;;;;5073013;28;20361;-74
2023/09/18 10:37:30;;;;;;;;;;;33.20;88.60;;;;;;5072495;28;19920;-74
2023/09/18 10:39:56;;;;;;;;;;;32.80;90.90;;;;;;5072620;28;19920;-74
2023/09/18 10:42:22;;;;;;;;;;;32.70;95.90;;;;;;5072637;28;20285;-73
2023/09/18 10:44:48;;;;;;;;;;;32.70;95.50;;;;;;5072475;28;20089;-74
2023/09/18 10:47:15;;;;;;;;;;;32.70;96.80;;;;;;5072852;28;20343;-74
2023/09/18 10:49:41;;;;;;;;;;;32.60;97.20;;;;;;5072650;28;20003;-73
2023/09/18 10:52:11;;;;;;;;;;;32.70;97.10;;;;;;5072214;28;19991;-74
2023/09/18 10:54:38;;;;;;;;;;;32.90;97.80;;;;;;5072992;28;19940;-74
2023/09/18 10:57:03;;;;;;;;;;;32.80;97.40;;;;;;5054120;28;19908;-74
2023/09/18 10:59:31;;;;;;;;;;;33.10;96.50;;;;;;5072312;28;19928;-73
2023/09/18 11:02:06;;;;;;;;;;;33.00;96.90;;;;;;5071963;28;20146;-74
2023/09/18 11:04:33;;;;;;;;;;;33.00;96.20;;;;;;5071993;28;19935;-74
2023/09/18 11:06:59;;;;;;;;;;;32.90;96.10;;;;;;5072511;28;20309;-73
2023/09/18 11:09:28;;;;;;;;;;;33.00;96.20;;;;;;5072166;28;19915;-74
2023/09/18 11:12:03;;;;;;;;;;;33.30;94.60;;;;;;5072403;28;19978;-74
2023/09/18 11:14:49;;;;;;;;;;;33.00;95.90;;;;;;5072088;28;19916;-74
2023/09/18 11:17:33;;;;;;;;;;;33.00;94.40;;;;;;5054307;28;20074;-74
2023/09/18 11:20:04;;;;;;;;;;;32.80;96.20;;;;;;5072641;28;20320;-74
2023/09/18 11:22:30;;;;;;;;;;;32.60;97.30;;;;;;5072676;28;19923;-73
2023/09/18 11:25:16;;;;;;;;;;;32.70;97.00;;;;;;5072768;28;19912;-73
2023/09/18 11:28:01;;;;;;;;;;;32.70;98.10;;;;;;5072349;28;20353;-74
2023/09/18 11:30:28;;;;;;;;;;;32.60;98.40;;;;;;5072837;28;20015;-74
2023/09/18 11:32:55;;;;;;;;;;;32.70;98.60;;;;;;5072428;28;19969;-74
2023/09/18 11:35:21;;;;;;;;;;;32.60;97.40;;;;;;5072221;28;20014;-74
2023/09/18 11:37:47;;;;;;;;;;;32.60;95.40;;;;;;5072537;28;19920;-74
2023/09/18 11:40:38;;;;;;;;;;;32.40;96.00;;;;;;5054453;28;19922;-75
2023/09/18 11:43:25;;;;;;;;;;;32.40;95.80;;;;;;5072368;28;20288;-74
2023/09/18 11:45:52;;;;;;;;;;;32.70;95.40;;;;;;5072614;28;19912;-74
2023/09/18 11:48:18;;;;;;;;;;;32.70;96.40;;;;;;5053577;28;19915;-74
2023/09/18 11:50:44;;;;;;;;;;;32.70;95.70;;;;;;5053600;28;19915;-74
2023/09/18 11:53:13;;;;;;;;;;;32.70;95.20;;;;;;5072154;28;19920;-74
2023/09/18 11:55:39;;;;;;;;;;;32.80;93.20;;;;;;5072580;28;19976;-74
2023/09/18 11:58:05;;;;;;;;;;;32.60;96.30;;;;;;5070969;28;19987;-74
2023/09/18 12:00:32;;;;;;;;;;;32.60;96.40;;;;;;5072028;28;20365;-75
2023/09/18 12:03:00;;;;;;;;;;;32.60;96.60;;;;;;5071745;28;19909;-74
2023/09/18 12:05:26;;;;;;;;;;;32.90;93.00;;;;;;5072046;28;19946;-74
2023/09/18 12:07:53;;;;;;;;;;;33.20;95.40;;;;;;5072567;28;20252;-75
2023/09/18 12:10:22;;;;;;;;;;;33.30;95.80;;;;;;5072295;28;19954;-74
2023/09/18 12:12:48;;;;;;;;;;;33.20;94.00;;;;;;5054053;28;19930;-75
2023/09/18 12:15:17;;;;;;;;;;;33.00;95.80;;;;;;5072484;28;20364;-74
2023/09/18 12:17:43;;;;;;;;;;;33.00;96.60;;;;;;5072536;28;20383;-74
2023/09/18 12:20:20;;;;;;;;;;;32.80;97.30;;;;;;5072984;28;19923;-74
2023/09/18 12:22:47;;;;;;;;;;;32.60;96.40;;;;;;5072885;28;19913;-74
2023/09/18 12:25:14;;;;;;;;;;;32.70;96.00;;;;;;5072726;28;20221;-74
2023/09/18 12:27:41;;;;;;;;;;;32.60;95.90;;;;;;5072509;28;19948;-74
2023/09/18 12:30:07;;;;;;;;;;;32.80;96.30;;;;;;5073141;28;20377;-74
2023/09/18 12:32:36;;;;;;;;;;;32.70;94.50;;;;;;5072669;28;19960;-74
2023/09/18 12:35:03;;;;;;;;;;;32.90;94.00;;;;;;5073062;28;20022;-74
2023/09/18 12:37:28;;;;;;;;;;;32.80;92.80;;;;;;5072661;28;19920;-75
2023/09/18 12:39:54;;;;;;;;;;;32.70;92.10;;;;;;5072697;28;19916;-74
2023/09/18 12:42:20;;;;;;;;;;;32.90;91.10;;;;;;5072537;28;19915;-75
2023/09/18 12:44:47;;;;;;;;;;;32.90;90.90;;;;;;5073225;28;20293;-74
2023/09/18 12:47:13;;;;;;;;;;;33.10;91.70;;;;;;5054521;28;20240;-74
2023/09/18 12:49:39;;;;;;;;;;;32.90;91.70;;;;;;5072482;28;19999;-74
2023/09/18 12:52:13;;;;;;;;;;;32.70;90.90;;;;;;5072234;28;19909;-74
2023/09/18 12:54:44;;;;;;;;;;;32.70;90.00;;;;;;5072222;28;19930;-74
2023/09/18 12:57:10;;;;;;;;;;;32.70;91.10;;;;;;5072285;28;20268;-74
2023/09/18 12:59:37;;;;;;;;;;;32.70;91.80;;;;;;5072040;28;19920;-74
2023/09/18 13:02:04;;;;;;;;;;;33.10;90.90;;;;;;5054041;28;19915;-73
2023/09/18 13:04:31;;;;;;;;;;;33.10;83.20;;;;;;5072583;28;19915;-75
2023/09/18 13:07:07;;;;;;;;;;;32.90;81.80;;;;;;5072406;28;19971;-74
2023/09/18 13:09:35;;;;;;;;;;;33.00;84.90;;;;;;5074622;28;19999;-74
2023/09/18 13:12:00;;;;;;;;;;;33.00;85.10;;;;;;5075814;28;19909;-74
2023/09/18 13:14:26;;;;;;;;;;;33.00;88.60;;;;;;5076107;28;20367;-75
2023/09/18 13:16:52;;;;;;;;;;;32.90;88.00;;;;;;5075663;28;20273;-74
2023/09/18 13:19:19;;;;;;;;;;;33.10;88.30;;;;;;5057945;28;19939;-75
2023/09/18 13:21:48;;;;;;;;;;;33.10;88.40;;;;;;5075658;28;19955;-75
2023/09/18 13:24:26;;;;;;;;;;;33.00;90.50;;;;;;5076074;28;19919;-74
2023/09/18 13:26:52;;;;;;;;;;;32.80;90.20;;;;;;5075646;28;19919;-74
2023/09/18 13:29:18;;;;;;;;;;;32.40;92.50;;;;;;5075765;28;20374;-74
2023/09/18 13:31:44;;;;;;;;;;;32.50;93.80;;;;;;5076005;28;19999;-74
2023/09/18 13:34:10;;;;;;;;;;;32.50;93.40;;;;;;5075751;28;19935;-74
2023/09/18 13:36:37;;;;;;;;;;;32.10;92.10;;;;;;5075524;28;20415;-74
2023/09/18 13:39:03;;;;;;;;;;;32.20;94.00;;;;;;5075646;28;19917;-74
2023/09/18 13:41:29;;;;;;;;;;;32.40;92.70;;;;;;5076053;28;19978;-75
2023/09/18 13:43:55;;;;;;;;;;;32.00;91.40;;;;;;5075492;28;19964;-74
2023/09/18 13:46:21;;;;;;;;;;;32.40;87.60;;;;;;5075464;28;19962;-74
2023/09/18 13:48:47;;;;;;;;;;;32.70;84.60;;;;;;5075281;28;19917;-74
2023/09/18 13:51:13;;;;;;;;;;;32.80;77.60;;;;;;5074968;28;19938;-73
2023/09/18 13:53:41;;;;;;;;;;;32.30;75.40;;;;;;5075372;28;20007;-73
2023/09/18 13:56:07;;;;;;;;;;;32.20;76.50;;;;;;5074927;28;19966;-74
2023/09/18 13:58:33;;;;;;;;;;;32.50;76.40;;;;;;5074665;28;19913;-74
2023/09/18 14:00:59;;;;;;;;;;;32.70;82.70;;;;;;5074828;28;19977;-73
2023/09/18 14:03:25;;;;;;;;;;;32.70;85.20;;;;;;5056797;28;20345;-73
2023/09/18 14:05:51;;;;;;;;;;;32.70;84.10;;;;;;5074930;28;19909;-74
2023/09/18 14:08:17;;;;;;;;;;;32.70;76.90;;;;;;5075352;28;20026;-74
2023/09/18 14:10:43;;;;;;;;;;;32.80;78.30;;;;;;5056834;28;19909;-74
2023/09/18 14:13:09;;;;;;;;;;;32.70;81.30;;;;;;5074831;28;19909;-74
2023/09/18 14:15:36;;;;;;;;;;;32.50;79.30;;;;;;5075342;28;20034;-73
2023/09/18 14:18:03;;;;;;;;;;;32.40;84.70;;;;;;5074584;28;19909;-74